Time;durP1;ratioP1;P1;durP2;ratioP2;P2;SDS_P1;SDS_P2;PMS_P1;PMS_P2;Temp;Humidity;BMP_temperature;BMP_pressure;BME280_temperature;BME280_humidity;BME280_pressure;Samples;Min_cycle;Max_cycle;Signal;HPM_P1;HPM_P2
2021/12/21 00:00:19;;;;;;;25.43;10.07;;;;;;;-4.56;100.00;96516.06;1025877;28;20076;-72
2021/12/21 00:00:50;;;;;;;23.00;10.13;;;;;;;-4.67;100.00;96502.69;1025866;28;20097;-72
2021/12/21 00:01:20;;;;;;;21.73;10.10;;;;;;;-4.62;100.00;96503.88;1026491;28;20460;-72
2021/12/21 00:01:51;;;;;;;18.97;10.10;;;;;;;-4.53;100.00;96514.94;1026165;28;20601;-71
2021/12/21 00:02:22;;;;;;;18.70;9.07;;;;;;;-4.52;100.00;96517.38;1030591;28;20104;-72
2021/12/21 00:02:53;;;;;;;18.60;10.30;;;;;;;-4.54;100.00;96521.84;1026868;28;20042;-72
2021/12/21 00:03:23;;;;;;;16.03;9.10;;;;;;;-4.51;100.00;96521.53;1026511;28;20278;-72
2021/12/21 00:03:54;;;;;;;22.97;9.17;;;;;;;-4.52;100.00;96525.06;1030059;28;20037;-72
2021/12/21 00:04:24;;;;;;;16.60;9.70;;;;;;;-4.52;100.00;96522.50;1026840;28;20027;-72
2021/12/21 00:04:55;;;;;;;23.00;9.63;;;;;;;-4.48;100.00;96524.75;1030541;28;20041;-72
2021/12/21 00:05:29;;;;;;;17.50;9.27;;;;;;;-4.51;100.00;96521.53;1031998;28;20049;-73
2021/12/21 00:05:59;;;;;;;14.40;8.80;;;;;;;-4.52;100.00;96529.38;1033365;28;20034;-71
2021/12/21 00:06:30;;;;;;;21.17;9.20;;;;;;;-4.55;100.00;96512.56;1027065;28;20547;-71
2021/12/21 00:07:01;;;;;;;19.40;9.97;;;;;;;-4.74;100.00;96489.69;1030078;28;20061;-72
2021/12/21 00:07:31;;;;;;;14.60;8.77;;;;;;;-4.62;100.00;96503.88;1016825;29;20027;-73
2021/12/21 00:08:03;;;;;;;18.57;9.83;;;;;;;-4.50;100.00;96520.56;1022302;29;20293;-72
2021/12/21 00:08:33;;;;;;;18.38;9.55;;;;;;;-4.50;100.00;96522.34;1023115;28;20031;-72
2021/12/21 00:09:04;;;;;;;18.00;9.33;;;;;;;-4.50;100.00;96522.34;1026176;28;20039;-71
2021/12/21 00:09:34;;;;;;;21.87;9.43;;;;;;;-4.54;100.00;96521.84;1030962;28;20613;-72
2021/12/21 00:10:05;;;;;;;14.23;8.90;;;;;;;-4.54;100.00;96514.16;1037853;28;20025;-71
2021/12/21 00:10:35;;;;;;;20.30;9.03;;;;;;;-4.57;100.00;96511.88;1033464;28;20523;-72
2021/12/21 00:11:06;;;;;;;18.83;9.97;;;;;;;-4.53;100.00;96510.66;1030240;28;20034;-71
2021/12/21 00:11:37;;;;;;;18.73;9.10;;;;;;;-4.51;100.00;96515.63;1022530;28;20464;-73
2021/12/21 00:12:08;;;;;;;21.67;9.40;;;;;;;-4.54;100.00;96511.59;1024566;28;20547;-71
2021/12/21 00:12:48;;;;;;;21.05;9.52;;;;;;;-4.65;100.00;96501.59;1016304;29;20040;-72
2021/12/21 00:13:46;;;;;;;17.80;9.02;;;;;;;-4.69;100.00;96492.63;1023674;28;20046;-72
2021/12/21 00:15:06;;;;;;;19.80;9.18;;;;;;;-4.63;100.00;96507.34;1030533;28;20073;-72
2021/12/21 00:16:18;;;;;;;19.90;9.32;;;;;;;-4.66;100.00;96494.88;1023553;28;20035;-72
2021/12/21 00:17:08;;;;;;;22.80;8.95;;;;;;;-4.62;100.00;96510.75;1019417;28;20019;-72
2021/12/21 00:18:35;;;;;;;23.67;9.60;;;;;;;-4.59;100.00;96508.69;1030696;28;20039;-71
2021/12/21 00:20:05;;;;;;;22.23;9.80;;;;;;;-4.61;100.00;96509.78;1022338;28;20039;-71
2021/12/21 00:21:40;;;;;;;15.83;9.30;;;;;;;-4.66;100.00;96497.44;1022041;29;20588;-71
2021/12/21 00:24:08;;;;;;;17.83;9.63;;;;;;;-4.67;100.00;96488.13;1006948;29;20735;-72
2021/12/21 00:24:46;;;;;;;15.13;9.75;;;;;;;-4.62;100.00;96497.94;1013628;29;20044;-71
2021/12/21 00:25:20;;;;;;;20.10;10.10;;;;;;;-4.63;100.00;96494.56;1029843;28;20096;-73
2021/12/21 00:25:51;;;;;;;19.67;9.95;;;;;;;-4.63;100.00;96492.00;1024677;28;20055;-72
2021/12/21 00:26:22;;;;;;;18.40;9.40;;;;;;;-4.63;100.00;96497.13;1024795;28;20485;-71
2021/12/21 00:26:52;;;;;;;20.43;10.23;;;;;;;-4.64;100.00;96498.06;1023401;28;20035;-72
2021/12/21 00:27:23;;;;;;;22.63;9.87;;;;;;;-4.64;100.00;96492.16;1016818;29;20035;-73
2021/12/21 00:27:53;;;;;;;16.50;9.73;;;;;;;-4.63;100.00;96488.63;1018541;29;20039;-71
2021/12/21 00:28:24;;;;;;;22.23;10.20;;;;;;;-4.62;100.00;96493.63;1022465;28;20027;-72
2021/12/21 00:29:25;;;;;;;24.03;10.57;;;;;;;-4.69;100.00;96482.38;1026498;28;20039;-71
2021/12/21 00:29:56;;;;;;;25.20;11.27;;;;;;;-4.60;100.00;96494.25;1034535;28;20038;-71
2021/12/21 00:30:26;;;;;;;24.37;10.43;;;;;;;-4.71;100.00;96483.47;1033775;28;20631;-72
2021/12/21 00:30:56;;;;;;;20.00;9.27;;;;;;;-4.71;100.00;96473.22;1030745;28;20042;-72
2021/12/21 00:31:30;;;;;;;21.73;10.13;;;;;;;-4.65;100.00;96486.22;1022448;29;20031;-72
2021/12/21 00:32:00;;;;;;;22.13;9.77;;;;;;;-4.57;100.00;96493.16;1033241;28;20569;-71
2021/12/21 00:32:31;;;;;;;20.90;10.53;;;;;;;-4.61;100.00;96489.31;1036733;28;20030;-72
2021/12/21 00:33:01;;;;;;;22.00;10.53;;;;;;;-4.57;100.00;96499.09;1033370;28;20030;-72
2021/12/21 00:33:32;;;;;;;20.00;9.50;;;;;;;-4.57;100.00;96496.53;1026152;28;20037;-72
2021/12/21 00:34:03;;;;;;;16.83;9.80;;;;;;;-4.63;100.00;96481.75;1022192;29;20027;-72
2021/12/21 00:34:34;;;;;;;19.00;9.10;;;;;;;-4.65;100.00;96478.56;1022273;29;20011;-71
2021/12/21 00:35:08;;;;;;;18.60;10.40;;;;;;;-4.65;100.00;96481.13;1023185;28;20612;-71
2021/12/21 00:35:38;;;;;;;15.90;9.23;;;;;;;-4.63;100.00;96484.31;1022987;28;20031;-71
2021/12/21 00:36:09;;;;;;;21.30;9.80;;;;;;;-4.55;100.00;96496.38;1023074;28;20492;-72
2021/12/21 00:36:40;;;;;;;22.77;10.27;;;;;;;-4.51;100.00;96502.81;1030700;28;20542;-72
2021/12/21 00:37:10;;;;;;;18.33;10.47;;;;;;;-4.50;100.00;96492.41;1029910;28;20027;-71
2021/12/21 00:37:43;;;;;;;18.97;10.37;;;;;;;-4.51;100.00;96501.06;1033848;28;20029;-71
2021/12/21 00:38:13;;;;;;;18.75;10.15;;;;;;;-4.51;100.00;96495.94;1032141;28;20027;-72
2021/12/21 00:38:45;;;;;;;19.20;10.20;;;;;;;-4.53;100.00;96492.72;1023135;28;20036;-72
2021/12/21 00:39:16;;;;;;;21.55;10.45;;;;;;;-4.57;100.00;96481.16;1026358;28;20038;-72
2021/12/21 00:39:46;;;;;;;23.10;10.83;;;;;;;-4.53;100.00;96492.72;1027367;28;20027;-71
2021/12/21 00:40:17;;;;;;;19.83;10.27;;;;;;;-4.54;100.00;96485.97;1029741;28;20273;-71
2021/12/21 00:40:47;;;;;;;16.03;9.60;;;;;;;-4.52;100.00;96494.34;1028504;28;20526;-72
2021/12/21 00:41:18;;;;;;;22.80;10.57;;;;;;;-4.49;100.00;96488.13;1026810;28;20063;-72
2021/12/21 00:41:48;;;;;;;17.53;9.80;;;;;;;-4.47;100.00;96490.50;1030314;28;20022;-72
2021/12/21 00:42:18;;;;;;;21.07;10.87;;;;;;;-4.56;100.00;96482.78;1034445;28;20096;-71
2021/12/21 00:42:49;;;;;;;21.67;11.13;;;;;;;-4.54;100.00;96478.31;1026227;28;20035;-72
2021/12/21 00:43:20;;;;;;;17.50;9.93;;;;;;;-4.48;100.00;96494.84;1028585;28;20082;-71
2021/12/21 00:43:50;;;;;;;21.73;10.43;;;;;;;-4.54;100.00;96480.88;1029858;28;20034;-71
2021/12/21 00:44:21;;;;;;;15.83;9.33;;;;;;;-4.47;100.00;96490.50;1030558;28;20105;-72
2021/12/21 00:44:51;;;;;;;16.20;10.43;;;;;;;-4.48;100.00;96494.03;1026206;28;20030;-72
2021/12/21 00:45:21;;;;;;;18.60;9.93;;;;;;;-4.48;100.00;96488.91;1026467;28;20606;-72
2021/12/21 00:45:52;;;;;;;24.47;9.47;;;;;;;-4.48;100.00;96494.03;1026527;28;20062;-72
2021/12/21 00:46:22;;;;;;;17.47;10.43;;;;;;;-4.47;100.00;96493.06;1022352;28;20027;-72
2021/12/21 00:46:53;;;;;;;22.93;10.07;;;;;;;-4.50;100.00;96487.28;1029884;28;20030;-72
2021/12/21 00:47:23;;;;;;;17.53;9.80;;;;;;;-4.51;100.00;96479.78;1026531;28;20066;-71
2021/12/21 00:47:54;;;;;;;16.63;9.93;;;;;;;-4.52;100.00;96473.03;1026474;28;20035;-72
2021/12/21 00:48:28;;;;;;;22.23;9.67;;;;;;;-4.52;100.00;96483.28;1012072;29;20028;-73
2021/12/21 00:49:12;;;;;;;18.67;9.60;;;;;;;-4.46;100.00;96487.81;1022411;29;20115;-71
2021/12/21 00:49:47;;;;;;;18.98;9.48;;;;;;;-4.50;100.00;96484.72;1020879;29;20034;-71
2021/12/21 00:50:18;;;;;;;18.23;9.45;;;;;;;-4.53;100.00;96472.25;1024510;28;20046;-71
2021/12/21 00:50:48;;;;;;;15.77;10.17;;;;;;;-4.47;100.00;96496.44;1021032;28;20521;-71
2021/12/21 00:51:20;;;;;;;17.90;9.40;;;;;;;-4.48;100.00;96488.91;1028679;28;20023;-72
2021/12/21 00:51:53;;;;;;;18.73;9.35;;;;;;;-4.49;100.00;96490.69;1029100;28;20428;-72
2021/12/21 00:52:24;;;;;;;16.90;9.17;;;;;;;-4.53;100.00;96479.94;1028301;28;20085;-72
2021/12/21 00:52:55;;;;;;;23.60;9.90;;;;;;;-4.51;100.00;96485.69;1034159;28;20502;-71
2021/12/21 00:53:25;;;;;;;18.23;9.23;;;;;;;-4.45;100.00;96486.06;1030490;28;20030;-71
2021/12/21 00:53:55;;;;;;;19.20;9.73;;;;;;;-4.51;100.00;96484.88;1018439;29;20496;-72
2021/12/21 00:54:26;;;;;;;19.27;9.50;;;;;;;-4.46;100.00;96484.44;1024463;28;20035;-72
2021/12/21 00:54:56;;;;;;;18.77;9.37;;;;;;;-4.50;100.00;96487.28;1022105;28;20247;-72
2021/12/21 00:55:27;;;;;;;19.67;9.50;;;;;;;-4.51;100.00;96484.88;1027329;28;20022;-72
2021/12/21 00:55:57;;;;;;;17.43;9.90;;;;;;;-4.48;100.00;96484.59;1027456;28;20030;-71
2021/12/21 00:56:28;;;;;;;24.27;10.90;;;;;;;-4.57;100.00;96470.91;1031805;28;20030;-72
2021/12/21 00:56:58;;;;;;;20.60;9.50;;;;;;;-4.51;100.00;96490.81;1018238;29;20059;-72
2021/12/21 00:57:29;;;;;;;15.63;9.90;;;;;;;-4.49;100.00;96488.13;1026014;28;20031;-71
2021/12/21 00:57:59;;;;;;;23.97;9.70;;;;;;;-4.54;100.00;96480.06;1033903;28;20038;-72
2021/12/21 00:58:29;;;;;;;18.63;9.50;;;;;;;-4.44;100.00;96480.78;1022592;29;20039;-72
2021/12/21 00:59:00;;;;;;;22.43;9.13;;;;;;;-4.46;100.00;96487.81;1030016;28;20030;-69
2021/12/21 00:59:31;;;;;;;17.43;9.43;;;;;;;-4.47;100.00;96480.28;1038756;28;20031;-72
2021/12/21 01:00:04;;;;;;;18.33;10.10;;;;;;;-4.46;100.00;96487.81;1022291;28;20024;-69
2021/12/21 01:00:35;;;;;;;16.90;9.13;;;;;;;-4.47;100.00;96478.50;1026372;28;20696;-72
2021/12/21 01:01:07;;;;;;;20.27;9.63;;;;;;;-4.57;100.00;96465.78;1017273;29;20036;-69
2021/12/21 01:01:40;;;;;;;22.80;9.50;;;;;;;-4.56;100.00;96472.53;1022673;28;20036;-71
2021/12/21 01:02:11;;;;;;;20.30;10.25;;;;;;;-4.48;100.00;96481.22;1022463;28;20038;-69
2021/12/21 01:02:42;;;;;;;17.43;9.30;;;;;;;-4.50;100.00;96482.16;1022036;28;20028;-72
2021/12/21 01:03:15;;;;;;;17.73;10.83;;;;;;;-4.61;100.00;96469.63;1022407;28;20560;-72
2021/12/21 01:03:50;;;;;;;23.27;10.50;;;;;;;-4.53;100.00;96482.50;1020351;28;20027;-71
2021/12/21 01:04:25;;;;;;;20.25;9.13;;;;;;;-4.76;100.00;96446.31;1023358;28;20655;-70
2021/12/21 01:04:59;;;;;;;18.95;9.95;;;;;;;-4.62;100.00;96470.56;1022542;28;20102;-71
2021/12/21 01:05:37;;;;;;;20.25;9.30;;;;;;;-4.60;100.00;96476.34;1027833;28;20039;-72
2021/12/21 01:06:15;;;;;;;20.15;9.65;;;;;;;-4.58;100.00;96479.56;1033834;28;20511;-71
2021/12/21 01:07:00;;;;;;;18.65;9.68;;;;;;;-4.58;100.00;96479.56;1037745;28;20040;-71
2021/12/21 01:07:38;;;;;;;20.13;9.93;;;;;;;-4.62;100.00;96467.22;1031197;28;20073;-72
2021/12/21 01:08:12;;;;;;;20.23;9.75;;;;;;;-4.63;100.00;96468.94;1030365;28;20045;-72
2021/12/21 01:08:57;;;;;;;15.75;9.30;;;;;;;-4.65;100.00;96468.31;1026286;28;20019;-71
2021/12/21 01:11:32;;;;;;;20.27;9.48;;;;;;;-4.64;100.00;96466.56;1014429;29;20028;-72
2021/12/21 01:12:08;;;;;;;20.58;10.10;;;;;;;-4.70;100.00;96460.25;1025493;28;20042;-71
2021/12/21 01:12:50;;;;;;;23.63;9.45;;;;;;;-4.65;100.00;96470.88;1030222;28;20026;-72
2021/12/21 01:13:36;;;;;;;23.25;11.48;;;;;;;-4.69;100.00;96464.44;1026128;28;20027;-72
2021/12/21 01:14:38;;;;;;;15.95;9.45;;;;;;;-4.80;100.00;96449.31;1014881;29;20068;-72
2021/12/21 01:15:28;;;;;;;17.73;9.50;;;;;;;-4.72;100.00;96464.75;1026292;28;20041;-72
2021/12/21 01:16:05;;;;;;;22.05;10.32;;;;;;;-4.72;100.00;96462.19;1024261;28;20031;-71
2021/12/21 01:16:46;;;;;;;18.90;9.90;;;;;;;-4.76;100.00;96463.44;1022543;29;20036;-73
2021/12/21 01:17:29;;;;;;;27.17;10.15;;;;;;;-5.00;100.00;96434.16;1030260;28;20854;-72
2021/12/21 01:18:10;;;;;;;23.08;10.68;;;;;;;-4.85;100.00;96456.66;1018772;29;20094;-71
2021/12/21 01:19:33;;;;;;;24.33;10.23;;;;;;;-4.81;100.00;96463.06;1022757;28;20031;-72
2021/12/21 01:19:37;;;;;;;19.60;10.23;;;;;;;-4.85;100.00;96456.66;1016535;29;20039;-72
2021/12/21 01:20:25;;;;;;;23.65;9.80;;;;;;;-5.06;100.00;96431.38;1017648;29;20124;-71
2021/12/21 01:21:32;;;;;;;17.48;10.27;;;;;;;-4.84;100.00;96463.38;1022794;28;20714;-72
2021/12/21 01:22:15;;;;;;;27.27;10.63;;;;;;;-4.89;100.00;96458.72;1026086;28;20519;-72
2021/12/21 01:24:36;;;;;;;17.83;10.02;;;;;;;-4.95;100.00;96453.38;1030337;28;20121;-72
2021/12/21 01:25:51;;;;;;;22.70;10.30;;;;;;;-4.98;100.00;96455.25;1022850;28;20058;-72
2021/12/21 01:26:41;;;;;;;19.80;10.18;;;;;;;-5.00;100.00;96454.63;1028319;28;20023;-72
2021/12/21 01:29:30;;;;;;;21.42;10.48;;;;;;;-5.10;100.00;96435.97;1023067;28;20150;-71
2021/12/21 01:30:14;;;;;;;22.70;10.43;;;;;;;-5.04;100.00;96447.38;1023481;28;20079;-71
2021/12/21 01:31:16;;;;;;;21.13;10.10;;;;;;;-5.07;100.00;96455.34;1025481;28;20059;-72
2021/12/21 01:32:00;;;;;;;17.17;9.13;;;;;;;-5.11;100.00;96451.47;1033269;28;20022;-72
2021/12/21 01:33:26;;;;;;;17.25;10.60;;;;;;;-5.22;100.00;96444.84;1036533;28;20080;-72
2021/12/21 01:34:59;;;;;;;24.77;10.90;;;;;;;-5.16;100.00;96451.94;1030829;28;20026;-72
2021/12/21 01:35:37;;;;;;;21.38;10.75;;;;;;;-5.13;100.00;96443.97;1030361;28;20057;-72
2021/12/21 01:36:19;;;;;;;23.05;11.80;;;;;;;-5.13;100.00;96449.09;1026616;28;20086;-72
2021/12/21 01:36:58;;;;;;;24.55;11.55;;;;;;;-5.14;100.00;96442.34;1021523;29;20031;-72
2021/12/21 01:38:06;;;;;;;19.47;9.80;;;;;;;-5.17;100.00;96437.50;1030286;28;20035;-72
2021/12/21 01:38:48;;;;;;;26.58;11.43;;;;;;;-5.14;100.00;96444.91;1029201;28;20050;-72
2021/12/21 01:40:40;;;;;;;21.98;10.68;;;;;;;-5.14;100.00;96442.34;1030241;28;20018;-72
2021/12/21 01:41:32;;;;;;;19.02;10.63;;;;;;;-5.13;100.00;96441.41;1027107;28;20019;-72
2021/12/21 01:42:55;;;;;;;21.63;10.70;;;;;;;-5.17;100.00;96429.84;1027145;28;20464;-71
2021/12/21 01:43:42;;;;;;;18.50;10.70;;;;;;;-5.10;100.00;96437.72;1029724;28;20531;-72
2021/12/21 01:49:59;;;;;;;20.63;10.23;;;;;;;-5.17;100.00;96432.41;1029805;28;20018;-71
2021/12/21 01:50:30;;;;;;;26.07;10.50;;;;;;;-5.18;100.00;96441.03;1026642;28;20038;-71
2021/12/21 01:51:00;;;;;;;21.57;10.43;;;;;;;-5.21;100.00;96425.97;1026190;28;20544;-72
2021/12/21 01:51:35;;;;;;;20.43;11.23;;;;;;;-5.23;100.00;96427.88;1015145;29;20084;-70
2021/12/21 01:52:13;;;;;;;19.27;11.25;;;;;;;-5.26;100.00;96423.06;1011792;29;20117;-72
2021/12/21 01:52:44;;;;;;;24.52;11.63;;;;;;;-5.24;100.00;96419.38;1016335;29;20025;-72
2021/12/21 01:53:14;;;;;;;21.63;10.80;;;;;;;-5.24;100.00;96421.94;1018816;29;20031;-72
2021/12/21 01:53:46;;;;;;;21.33;11.03;;;;;;;-5.15;100.00;96434.81;1020290;29;20059;-71
2021/12/21 01:54:16;;;;;;;18.83;11.98;;;;;;;-5.19;100.00;96425.84;1023042;29;20282;-71
2021/12/21 01:54:47;;;;;;;25.67;12.50;;;;;;;-5.14;100.00;96431.31;1019903;29;20501;-71
2021/12/21 01:55:17;;;;;;;22.40;11.97;;;;;;;-5.15;100.00;96425.38;1026087;28;20421;-71
2021/12/21 01:55:47;;;;;;;24.80;11.63;;;;;;;-5.17;100.00;96422.16;1025814;28;20122;-70
2021/12/21 01:56:18;;;;;;;23.80;11.67;;;;;;;-5.24;100.00;96414.28;1019496;29;20410;-71
2021/12/21 01:56:49;;;;;;;22.17;11.93;;;;;;;-5.17;100.00;96419.59;1022892;28;20024;-71
2021/12/21 01:57:19;;;;;;;23.07;11.20;;;;;;;-5.30;100.00;96407.22;1031287;28;20022;-72
2021/12/21 01:57:50;;;;;;;23.00;11.80;;;;;;;-5.26;100.00;96410.28;1031404;28;20029;-72
2021/12/21 01:58:20;;;;;;;23.97;11.97;;;;;;;-5.39;100.00;96392.75;1019122;29;20020;-73
2021/12/21 01:58:51;;;;;;;18.67;10.67;;;;;;;-5.19;100.00;96421.53;1023392;29;20083;-72
2021/12/21 01:59:21;;;;;;;22.77;11.90;;;;;;;-5.32;100.00;96408.31;1019284;29;20980;-72
2021/12/21 01:59:52;;;;;;;19.33;10.83;;;;;;;-5.25;100.00;96410.13;1027153;28;20031;-71
2021/12/21 02:00:22;;;;;;;20.37;11.53;;;;;;;-5.16;100.00;96423.78;1026030;28;20026;-72
2021/12/21 02:00:53;;;;;;;29.30;11.33;;;;;;;-5.28;100.00;96404.50;1022578;29;20027;-71
2021/12/21 02:01:24;;;;;;;17.53;9.97;;;;;;;-5.24;100.00;96419.38;1019455;29;20016;-71
2021/12/21 02:01:55;;;;;;;18.52;11.25;;;;;;;-5.32;100.00;96405.75;1023793;28;20026;-72
2021/12/21 02:02:25;;;;;;;20.73;10.07;;;;;;;-5.24;100.00;96419.38;1020013;29;20605;-72
2021/12/21 02:02:56;;;;;;;20.50;10.50;;;;;;;-5.26;100.00;96417.94;1019826;29;20039;-72
2021/12/21 02:03:26;;;;;;;24.33;11.30;;;;;;;-5.23;100.00;96422.78;1025815;28;20030;-72
2021/12/21 02:03:57;;;;;;;18.60;10.73;;;;;;;-5.23;100.00;96423.56;1019386;28;20063;-72
2021/12/21 02:04:27;;;;;;;21.50;10.50;;;;;;;-5.29;100.00;96415.69;1019591;29;20023;-72
2021/12/21 02:04:58;;;;;;;24.57;10.50;;;;;;;-5.35;100.00;96398.38;1024269;28;20027;-71
2021/12/21 02:05:28;;;;;;;21.03;10.27;;;;;;;-5.26;100.00;96416.19;1023258;29;20027;-71
2021/12/21 02:05:59;;;;;;;23.87;10.83;;;;;;;-5.26;100.00;96416.19;1025607;28;20101;-72
2021/12/21 02:06:29;;;;;;;18.97;10.60;;;;;;;-5.26;100.00;96412.84;1027597;28;20031;-70
2021/12/21 02:06:59;;;;;;;19.20;10.40;;;;;;;-5.29;100.00;96415.69;1027119;28;20030;-72
2021/12/21 02:07:33;;;;;;;18.07;10.17;;;;;;;-5.27;100.00;96416.31;1023349;28;20026;-70
2021/12/21 02:08:04;;;;;;;23.23;10.60;;;;;;;-5.32;100.00;96414.22;1027131;28;20424;-72
2021/12/21 02:08:34;;;;;;;18.60;10.77;;;;;;;-5.34;100.00;96405.06;1029201;28;20022;-70
2021/12/21 02:09:05;;;;;;;19.80;10.90;;;;;;;-5.37;100.00;96405.38;1023024;28;20026;-72
2021/12/21 02:09:38;;;;;;;20.03;10.00;;;;;;;-5.34;100.00;96411.00;1027756;28;20031;-72
2021/12/21 02:10:08;;;;;;;18.45;10.73;;;;;;;-5.33;100.00;96404.13;1029978;28;20043;-71
2021/12/21 02:10:39;;;;;;;18.23;9.43;;;;;;;-5.43;100.00;96396.56;1032084;28;20026;-71
2021/12/21 02:11:10;;;;;;;20.70;10.07;;;;;;;-5.42;100.00;96403.25;1031593;28;20101;-72
2021/12/21 02:11:40;;;;;;;18.53;9.77;;;;;;;-5.43;100.00;96399.09;1023410;28;20035;-71
2021/12/21 02:12:13;;;;;;;20.87;10.07;;;;;;;-5.40;100.00;96405.66;1031317;28;20566;-72
2021/12/21 02:12:43;;;;;;;18.88;10.40;;;;;;;-5.38;100.00;96398.66;1019797;29;20025;-71
2021/12/21 02:13:16;;;;;;;20.02;9.95;;;;;;;-5.40;100.00;96408.22;1015560;29;20711;-73
2021/12/21 02:13:49;;;;;;;21.50;10.83;;;;;;;-5.38;100.00;96408.88;1016732;29;20028;-72
2021/12/21 02:14:20;;;;;;;21.55;10.18;;;;;;;-5.41;100.00;96401.50;1023902;28;20043;-72
2021/12/21 02:15:01;;;;;;;18.43;10.37;;;;;;;-5.36;100.00;96407.00;1027574;28;20035;-73
2021/12/21 02:15:32;;;;;;;22.60;11.65;;;;;;;-5.39;100.00;96400.41;1029303;28;20054;-73
2021/12/21 02:16:04;;;;;;;20.57;11.03;;;;;;;-5.39;100.00;96404.72;1015657;29;20044;-72
2021/12/21 02:20:18;;;;;;;17.60;10.02;;;;;;;-5.41;100.00;96404.06;1039936;28;20049;-72
2021/12/21 02:21:04;;;;;;;22.15;9.85;;;;;;;-5.47;100.00;96406.25;1031505;28;20115;-72
2021/12/21 02:21:49;;;;;;;19.10;10.23;;;;;;;-5.46;100.00;96397.63;1027626;28;20381;-71
2021/12/21 02:22:21;;;;;;;19.90;9.73;;;;;;;-5.52;100.00;96400.78;1027038;28;20400;-71
2021/12/21 02:23:02;;;;;;;20.40;10.43;;;;;;;-5.49;100.00;96408.16;1019972;29;20031;-73
2021/12/21 02:23:36;;;;;;;20.08;10.02;;;;;;;-5.50;100.00;96398.06;1026866;28;20407;-69
2021/12/21 02:24:15;;;;;;;24.98;11.32;;;;;;;-5.50;100.00;96398.06;1023154;29;20091;-73
2021/12/21 02:24:57;;;;;;;18.70;10.45;;;;;;;-5.51;100.00;96399.81;1026014;28;20656;-72
2021/12/21 02:26:18;;;;;;;22.00;10.17;;;;;;;-5.53;100.00;96394.06;1025649;28;20654;-72
2021/12/21 02:27:41;;;;;;;19.53;10.97;;;;;;;-5.52;100.00;96398.22;1026192;28;20038;-72
2021/12/21 02:28:58;;;;;;;19.05;10.27;;;;;;;-5.50;100.00;96395.50;1027826;28;20107;-72
2021/12/21 02:29:32;;;;;;;24.55;10.60;;;;;;;-5.51;100.00;96394.69;1026518;28;20031;-72
2021/12/21 02:30:03;;;;;;;22.73;10.57;;;;;;;-5.50;100.00;96393.78;1026907;28;20628;-70
2021/12/21 02:30:34;;;;;;;20.10;10.70;;;;;;;-5.51;100.00;96388.78;1026944;28;20027;-71
2021/12/21 02:31:04;;;;;;;24.43;10.37;;;;;;;-5.49;100.00;96392.81;1026584;28;20035;-72
2021/12/21 02:31:35;;;;;;;22.23;10.80;;;;;;;-5.48;100.00;96399.53;1024229;28;20074;-72
2021/12/21 02:32:08;;;;;;;26.10;11.40;;;;;;;-5.46;100.00;96397.63;1023547;29;20035;-72
2021/12/21 02:32:40;;;;;;;22.95;10.88;;;;;;;-5.55;100.00;96374.69;1022369;28;20046;-72
2021/12/21 02:33:12;;;;;;;21.67;11.20;;;;;;;-5.55;100.00;96378.06;1023461;29;20485;-72
2021/12/21 02:33:45;;;;;;;21.48;11.63;;;;;;;-5.43;100.00;96395.72;1023302;29;20034;-72
2021/12/21 02:34:16;;;;;;;27.73;12.02;;;;;;;-5.45;100.00;96395.88;1020867;29;20382;-72
2021/12/21 02:34:46;;;;;;;21.73;12.03;;;;;;;-5.51;100.00;96386.25;1020719;28;20115;-72
2021/12/21 02:35:18;;;;;;;23.40;10.63;;;;;;;-5.51;100.00;96387.03;1027905;28;20274;-72
2021/12/21 02:35:48;;;;;;;19.27;11.10;;;;;;;-5.50;100.00;96398.88;1031809;28;20030;-71
2021/12/21 02:36:19;;;;;;;25.30;11.03;;;;;;;-5.54;100.00;96392.44;1033439;28;20391;-72
2021/12/21 02:36:50;;;;;;;24.43;11.77;;;;;;;-5.56;100.00;96389.25;1019166;29;20124;-72
2021/12/21 02:37:21;;;;;;;23.23;10.82;;;;;;;-5.63;100.00;96385.66;1022888;29;20023;-72
2021/12/21 02:37:51;;;;;;;23.83;11.77;;;;;;;-5.70;100.00;96374.38;1025148;28;20031;-72
2021/12/21 02:38:22;;;;;;;27.23;12.23;;;;;;;-5.54;100.00;96389.09;1027242;28;20093;-72
2021/12/21 02:38:52;;;;;;;19.17;11.17;;;;;;;-5.56;100.00;96391.78;1027297;28;20085;-72
2021/12/21 02:39:24;;;;;;;22.33;11.20;;;;;;;-5.65;100.00;96379.88;1019502;28;20035;-72
2021/12/21 02:39:54;;;;;;;27.35;12.05;;;;;;;-5.53;100.00;96386.41;1015402;29;20024;-72
2021/12/21 02:40:24;;;;;;;29.43;11.90;;;;;;;-5.56;100.00;96385.88;1018901;29;20107;-72
2021/12/21 02:40:55;;;;;;;23.13;10.80;;;;;;;-5.57;100.00;96384.25;1025995;28;20015;-71
2021/12/21 02:41:25;;;;;;;19.43;10.83;;;;;;;-5.54;100.00;96384.78;1030371;28;20018;-72
2021/12/21 02:41:56;;;;;;;24.10;12.43;;;;;;;-5.48;100.00;96384.19;1030340;28;20420;-71
2021/12/21 02:42:26;;;;;;;19.87;11.33;;;;;;;-5.52;100.00;96385.44;1031483;28;20092;-72
2021/12/21 02:42:57;;;;;;;20.90;11.30;;;;;;;-5.47;100.00;96383.22;1027461;28;20038;-72
2021/12/21 02:43:28;;;;;;;19.60;11.77;;;;;;;-5.47;100.00;96385.78;1026827;28;20023;-72
2021/12/21 02:43:58;;;;;;;21.67;11.93;;;;;;;-5.53;100.00;96367.69;1027400;28;20027;-69
2021/12/21 02:44:30;;;;;;;21.83;12.10;;;;;;;-5.48;100.00;96383.38;1027445;28;20026;-72
2021/12/21 02:45:00;;;;;;;21.85;11.73;;;;;;;-5.52;100.00;96382.88;1032639;28;20088;-72
2021/12/21 02:45:31;;;;;;;20.00;11.37;;;;;;;-5.53;100.00;96371.06;1031294;28;20117;-72
2021/12/21 02:46:04;;;;;;;24.27;11.73;;;;;;;-5.44;100.00;96379.59;1031195;28;20022;-72
2021/12/21 02:46:35;;;;;;;18.38;11.32;;;;;;;-5.51;100.00;96373.44;1023170;29;20531;-72
2021/12/21 02:47:06;;;;;;;21.87;11.83;;;;;;;-5.45;100.00;96389.00;1027307;28;20041;-72
2021/12/21 02:47:36;;;;;;;24.20;12.30;;;;;;;-5.45;100.00;96383.09;1023873;28;20027;-72
2021/12/21 02:48:07;;;;;;;19.37;12.30;;;;;;;-5.43;100.00;96388.06;1023520;28;20027;-72
2021/12/21 02:48:37;;;;;;;23.87;12.10;;;;;;;-5.46;100.00;96377.19;1022911;28;20106;-72
2021/12/21 02:49:09;;;;;;;27.73;11.77;;;;;;;-5.45;100.00;96389.00;1019423;29;20019;-72
2021/12/21 02:49:39;;;;;;;23.30;11.05;;;;;;;-5.42;100.00;96387.13;1031299;28;20832;-72
2021/12/21 02:50:10;;;;;;;25.00;12.13;;;;;;;-5.41;100.00;96396.41;1026441;28;20034;-71
2021/12/21 02:50:40;;;;;;;26.07;12.37;;;;;;;-5.42;100.00;96387.13;1027226;28;20023;-72
2021/12/21 02:51:11;;;;;;;24.20;12.10;;;;;;;-5.42;100.00;96390.47;1023614;29;20062;-72
2021/12/21 02:51:43;;;;;;;17.33;10.60;;;;;;;-5.40;100.00;96395.44;1022833;29;20038;-72
2021/12/21 02:52:13;;;;;;;23.15;11.65;;;;;;;-5.43;100.00;96391.44;1023718;28;20556;-72
2021/12/21 02:52:44;;;;;;;19.17;11.13;;;;;;;-5.38;100.00;96389.22;1023610;28;20038;-72
2021/12/21 02:53:15;;;;;;;24.85;12.57;;;;;;;-5.47;100.00;96385.78;1023295;28;20094;-72
2021/12/21 02:53:45;;;;;;;19.13;11.33;;;;;;;-5.46;100.00;96382.31;1020574;29;20032;-70
2021/12/21 02:54:17;;;;;;;20.73;11.67;;;;;;;-5.38;100.00;96393.53;1015681;29;20633;-72
2021/12/21 02:54:48;;;;;;;21.65;12.48;;;;;;;-5.39;100.00;96392.75;1019742;29;20031;-69
2021/12/21 02:55:18;;;;;;;21.67;11.20;;;;;;;-5.38;100.00;96398.66;1021791;28;20034;-72
2021/12/21 02:55:49;;;;;;;20.33;11.87;;;;;;;-5.36;100.00;96387.34;1025191;28;20119;-72
2021/12/21 02:56:19;;;;;;;18.63;11.67;;;;;;;-5.33;100.00;96401.56;1023375;29;20035;-72
2021/12/21 02:56:50;;;;;;;25.17;11.40;;;;;;;-5.38;100.00;96385.88;1019722;28;20088;-72
2021/12/21 02:57:20;;;;;;;24.77;11.53;;;;;;;-5.39;100.00;96387.63;1024961;28;20034;-72
2021/12/21 02:57:51;;;;;;;21.97;11.27;;;;;;;-5.30;100.00;96393.59;1025357;28;20480;-72
2021/12/21 02:58:21;;;;;;;23.73;11.73;;;;;;;-5.30;100.00;96396.16;1031270;28;20100;-71
2021/12/21 02:58:52;;;;;;;24.10;11.60;;;;;;;-5.40;100.00;96386.00;1034042;28;20924;-71
2021/12/21 02:59:22;;;;;;;17.93;10.87;;;;;;;-5.31;100.00;96386.88;1027897;28;20680;-71
2021/12/21 02:59:55;;;;;;;21.93;11.30;;;;;;;-5.31;100.00;96394.56;1022523;28;20062;-71
2021/12/21 03:00:26;;;;;;;21.30;10.90;;;;;;;-5.44;100.00;96377.03;1022033;29;20257;-72
2021/12/21 03:00:57;;;;;;;19.08;10.25;;;;;;;-5.34;100.00;96389.75;1021129;29;20078;-72
2021/12/21 03:01:28;;;;;;;21.37;10.90;;;;;;;-5.37;100.00;96390.03;1022747;29;20035;-72